createdAt,value
2018-04-28T00:00:31.214Z,0.00
2018-04-28T00:01:31.234Z,0.00
2018-04-28T00:03:24.406Z,0.00
2018-04-28T00:04:24.269Z,0.00
2018-04-28T00:06:17.381Z,0.00
2018-04-28T00:07:17.322Z,0.00
2018-04-28T00:09:10.757Z,0.00
2018-04-28T00:10:10.491Z,0.00
2018-04-28T00:12:03.510Z,0.00
2018-04-28T00:13:03.480Z,0.00
2018-04-28T00:14:56.632Z,0.00
2018-04-28T00:15:56.562Z,0.00
2018-04-28T00:17:49.718Z,0.00
2018-04-28T00:18:49.575Z,0.00
2018-04-28T00:20:42.401Z,0.00
2018-04-28T00:21:42.371Z,0.00
2018-04-28T00:23:35.730Z,0.00
2018-04-28T00:24:35.541Z,0.00
2018-04-28T00:26:28.546Z,0.00
2018-04-28T00:27:28.515Z,0.00
2018-04-28T00:29:21.960Z,0.00
2018-04-28T00:30:21.900Z,0.00
2018-04-28T00:32:14.890Z,0.00
2018-04-28T00:33:14.864Z,0.00
2018-04-28T00:35:07.682Z,0.00
2018-04-28T00:36:07.670Z,0.00
2018-04-28T00:38:00.986Z,0.00
2018-04-28T00:39:00.954Z,0.00
2018-04-28T00:40:53.939Z,0.00
2018-04-28T00:41:53.898Z,0.00
2018-04-28T00:43:46.795Z,0.00
2018-04-28T00:44:46.750Z,0.00
2018-04-28T00:46:39.784Z,0.00
2018-04-28T00:47:39.715Z,0.00
2018-04-28T00:49:32.775Z,0.00
2018-04-28T00:50:32.736Z,0.00
2018-04-28T00:52:25.794Z,0.00
2018-04-28T00:53:25.738Z,0.00
2018-04-28T00:55:18.782Z,0.00
2018-04-28T00:56:18.726Z,0.00
2018-04-28T00:58:11.730Z,0.00
2018-04-28T00:59:11.693Z,0.00
2018-04-28T01:01:04.525Z,0.00
2018-04-28T01:02:04.467Z,0.00
2018-04-28T01:03:57.481Z,0.00
2018-04-28T01:04:57.447Z,0.00
2018-04-28T01:06:50.502Z,0.00
2018-04-28T01:07:50.486Z,0.00
2018-04-28T01:09:43.276Z,0.00
2018-04-28T01:10:43.207Z,0.00
2018-04-28T01:12:36.261Z,0.00
2018-04-28T01:13:36.230Z,0.00
2018-04-28T01:15:29.333Z,0.00
2018-04-28T01:16:29.284Z,0.00
2018-04-28T01:18:22.462Z,0.00
2018-04-28T01:19:22.427Z,0.00
2018-04-28T01:21:15.491Z,0.00
2018-04-28T01:22:15.516Z,0.00
2018-04-28T01:24:08.661Z,0.00
2018-04-28T01:25:08.591Z,0.00
2018-04-28T01:27:01.632Z,0.00
2018-04-28T01:28:01.698Z,0.00
2018-04-28T01:29:54.387Z,0.00
2018-04-28T01:30:54.352Z,0.00
2018-04-28T01:32:47.581Z,0.00
2018-04-28T01:33:47.501Z,0.00
2018-04-28T01:35:40.566Z,0.00
2018-04-28T01:36:40.528Z,0.00
2018-04-28T01:38:33.784Z,0.00
2018-04-28T01:39:33.697Z,0.00
2018-04-28T01:41:26.727Z,0.00
2018-04-28T01:42:26.818Z,0.00
2018-04-28T01:44:19.950Z,0.00
2018-04-28T01:45:19.839Z,0.00
2018-04-28T01:47:12.864Z,0.00
2018-04-28T01:48:12.822Z,0.00
2018-04-28T01:50:05.625Z,0.00
2018-04-28T01:51:05.602Z,0.00
2018-04-28T01:52:58.875Z,0.00
2018-04-28T01:53:58.748Z,0.00
2018-04-28T01:55:51.804Z,0.00
2018-04-28T01:56:51.817Z,0.00
2018-04-28T01:58:45.014Z,0.00
2018-04-28T01:59:44.868Z,0.00
2018-04-28T02:01:37.873Z,0.00
2018-04-28T02:02:37.843Z,0.00
2018-04-28T02:04:30.864Z,0.00
2018-04-28T02:05:30.809Z,0.00
2018-04-28T02:07:23.622Z,0.00
2018-04-28T02:08:23.582Z,0.00
2018-04-28T02:10:16.570Z,0.00
2018-04-28T02:11:16.354Z,0.00
2018-04-28T02:13:09.391Z,0.00
2018-04-28T02:14:09.329Z,0.00
2018-04-28T02:16:02.377Z,0.00
2018-04-28T02:17:02.327Z,0.00
2018-04-28T02:18:55.214Z,0.00
2018-04-28T02:19:55.157Z,0.00
2018-04-28T02:21:48.154Z,0.00
2018-04-28T02:22:48.126Z,0.00
2018-04-28T02:24:41.154Z,0.00
2018-04-28T02:25:41.137Z,0.00
2018-04-28T02:27:34.272Z,0.00
2018-04-28T02:28:34.234Z,0.00
2018-04-28T02:30:27.077Z,0.00
2018-04-28T02:31:27.007Z,0.00
2018-04-28T02:33:19.991Z,0.00
2018-04-28T02:34:19.959Z,0.00
2018-04-28T02:36:12.860Z,0.00
2018-04-28T02:37:12.818Z,0.00
2018-04-28T02:39:05.812Z,0.00
2018-04-28T02:40:05.762Z,0.00
2018-04-28T02:41:58.578Z,0.00
2018-04-28T02:42:58.574Z,0.00
2018-04-28T02:44:51.575Z,0.00
2018-04-28T02:45:51.515Z,0.00
2018-04-28T02:47:44.335Z,0.00
2018-04-28T02:48:44.313Z,0.00
2018-04-28T02:50:37.269Z,0.00
2018-04-28T02:51:37.075Z,0.00
2018-04-28T02:53:30.108Z,0.00
2018-04-28T02:54:30.076Z,0.00
2018-04-28T02:56:23.504Z,0.00
2018-04-28T02:57:23.429Z,0.00
2018-04-28T02:59:16.447Z,0.00
2018-04-28T03:00:16.408Z,0.00
2018-04-28T03:02:09.709Z,0.00
2018-04-28T03:03:09.565Z,0.00
2018-04-28T03:05:02.576Z,0.00
2018-04-28T03:06:02.547Z,0.00
2018-04-28T03:07:55.365Z,0.00
2018-04-28T03:08:55.355Z,0.00
2018-04-28T03:10:48.132Z,0.00
2018-04-28T03:11:48.094Z,0.00
2018-04-28T03:13:41.284Z,0.00
2018-04-28T03:14:41.226Z,0.00
2018-04-28T03:16:34.765Z,0.00
2018-04-28T03:17:34.711Z,0.00
2018-04-28T03:19:27.743Z,0.00
2018-04-28T03:20:27.756Z,0.00
2018-04-28T03:22:20.561Z,0.00
2018-04-28T03:23:20.516Z,0.00
2018-04-28T03:25:13.539Z,0.00
2018-04-28T03:26:13.395Z,0.00
2018-04-28T03:28:06.441Z,0.00
2018-04-28T03:29:06.378Z,0.00
2018-04-28T03:30:59.413Z,0.00
2018-04-28T03:31:59.350Z,0.00
2018-04-28T03:33:52.162Z,0.00
2018-04-28T03:34:52.130Z,0.00
2018-04-28T03:36:45.042Z,0.00
2018-04-28T03:37:44.941Z,0.00
2018-04-28T03:39:37.919Z,0.00
2018-04-28T03:40:37.888Z,0.00
2018-04-28T03:42:30.900Z,0.00
2018-04-28T03:43:30.853Z,0.00
2018-04-28T03:45:23.679Z,0.00
2018-04-28T03:46:23.643Z,0.00
2018-04-28T03:48:16.610Z,0.00
2018-04-28T03:49:16.418Z,0.00
2018-04-28T03:51:09.431Z,0.00
2018-04-28T03:52:09.390Z,0.00
2018-04-28T03:54:02.416Z,0.00
2018-04-28T03:55:02.349Z,0.00
2018-04-28T03:56:55.190Z,0.00
2018-04-28T03:57:55.139Z,0.00
2018-04-28T03:59:48.029Z,0.00
2018-04-28T04:00:47.927Z,0.00
2018-04-28T04:02:42.873Z,0.00
2018-04-28T04:03:40.891Z,0.00
2018-04-28T04:05:33.901Z,0.00
2018-04-28T04:06:33.871Z,0.00
2018-04-28T04:08:26.940Z,0.00
2018-04-28T04:09:26.741Z,0.00
2018-04-28T04:11:19.750Z,0.00
2018-04-28T04:12:19.722Z,0.00
2018-04-28T04:14:13.174Z,0.00
2018-04-28T04:15:13.020Z,0.00
2018-04-28T04:17:06.021Z,0.00
2018-04-28T04:18:06.008Z,0.00
2018-04-28T04:19:58.803Z,0.00
2018-04-28T04:20:58.749Z,0.00
2018-04-28T04:22:52.034Z,0.00
2018-04-28T04:23:51.915Z,0.00
2018-04-28T04:25:44.944Z,0.00
2018-04-28T04:26:44.894Z,0.00
2018-04-28T04:28:37.715Z,0.00
2018-04-28T04:29:37.695Z,0.00
2018-04-28T04:31:30.477Z,0.00
2018-04-28T04:32:30.441Z,0.00
2018-04-28T04:34:23.300Z,0.00
2018-04-28T04:35:23.259Z,0.00
2018-04-28T04:37:16.271Z,5.63
2018-04-28T04:38:16.235Z,5.63
2018-04-28T04:40:09.249Z,5.63
2018-04-28T04:41:09.219Z,5.63
2018-04-28T04:43:02.021Z,5.63
2018-04-28T04:44:01.962Z,5.63
2018-04-28T04:45:55.075Z,11.25
2018-04-28T04:46:55.006Z,11.25
2018-04-28T04:48:48.091Z,11.25
2018-04-28T04:49:48.006Z,11.25
2018-04-28T04:51:41.219Z,11.25
2018-04-28T04:52:41.161Z,11.25
2018-04-28T04:54:34.495Z,11.25
2018-04-28T04:55:34.450Z,11.25
2018-04-28T04:57:27.511Z,11.25
2018-04-28T04:58:27.462Z,11.25
2018-04-28T05:00:20.286Z,16.88
2018-04-28T05:01:20.230Z,16.88
2018-04-28T05:03:13.096Z,16.88
2018-04-28T05:04:13.140Z,16.88
2018-04-28T05:06:06.240Z,16.88
2018-04-28T05:07:06.162Z,16.88
2018-04-28T05:08:59.174Z,16.88
2018-04-28T05:09:59.115Z,22.50
2018-04-28T05:11:52.462Z,22.50
2018-04-28T05:12:52.271Z,22.50
2018-04-28T05:14:45.335Z,22.50
2018-04-28T05:15:45.275Z,22.50
2018-04-28T05:17:40.217Z,22.50
2018-04-28T05:18:38.275Z,22.50
2018-04-28T05:20:31.065Z,22.50
2018-04-28T05:21:31.050Z,22.50
2018-04-28T05:23:24.037Z,28.13
2018-04-28T05:24:23.817Z,28.13
2018-04-28T05:26:16.803Z,28.13
2018-04-28T05:27:16.768Z,28.13
2018-04-28T05:29:09.806Z,28.13
2018-04-28T05:30:09.751Z,28.13
2018-04-28T05:32:02.602Z,28.13
2018-04-28T05:33:02.548Z,28.13
2018-04-28T05:34:55.556Z,33.75
2018-04-28T05:35:55.603Z,33.75
2018-04-28T05:37:48.579Z,33.75
2018-04-28T05:38:48.576Z,33.75
2018-04-28T05:40:41.757Z,33.75
2018-04-28T05:41:41.713Z,33.75
2018-04-28T05:43:34.790Z,39.38
2018-04-28T05:44:34.733Z,39.38
2018-04-28T05:46:27.959Z,39.38
2018-04-28T05:47:27.898Z,39.38
2018-04-28T05:49:20.748Z,45.00
2018-04-28T05:50:20.689Z,45.00
2018-04-28T05:52:13.691Z,39.38
2018-04-28T05:53:13.689Z,45.00
2018-04-28T05:55:06.762Z,45.00
2018-04-28T05:56:06.551Z,45.00
2018-04-28T05:57:59.545Z,39.38
2018-04-28T05:58:59.522Z,39.38
2018-04-28T06:00:52.542Z,39.38
2018-04-28T06:01:52.568Z,33.75
2018-04-28T06:03:45.454Z,33.75
2018-04-28T06:04:45.413Z,39.38
2018-04-28T06:06:38.230Z,39.38
2018-04-28T06:07:38.173Z,39.38
2018-04-28T06:09:31.217Z,39.38
2018-04-28T06:10:31.173Z,39.38
2018-04-28T06:12:24.493Z,39.38
2018-04-28T06:13:24.383Z,39.38
2018-04-28T06:15:17.409Z,39.38
2018-04-28T06:16:17.359Z,39.38
2018-04-28T06:18:10.413Z,39.38
2018-04-28T06:19:10.332Z,45.00
2018-04-28T06:21:03.179Z,45.00
2018-04-28T06:22:03.121Z,45.00
2018-04-28T06:23:56.135Z,45.00
2018-04-28T06:24:56.081Z,45.00
2018-04-28T06:26:49.119Z,45.00
2018-04-28T06:27:49.066Z,50.63
2018-04-28T06:29:41.884Z,45.00
2018-04-28T06:30:41.838Z,45.00
2018-04-28T06:32:34.933Z,50.63
2018-04-28T06:33:34.883Z,50.63
2018-04-28T06:35:27.868Z,45.00
2018-04-28T06:36:27.902Z,45.00
2018-04-28T06:38:21.129Z,50.63
2018-04-28T06:39:21.003Z,50.63
2018-04-28T06:41:14.091Z,56.25
2018-04-28T06:42:14.003Z,56.25
2018-04-28T06:44:06.798Z,56.25
2018-04-28T06:45:06.820Z,50.63
2018-04-28T06:47:00.105Z,50.63
2018-04-28T06:48:00.091Z,50.63
2018-04-28T06:49:52.913Z,50.63
2018-04-28T06:50:52.967Z,50.63
2018-04-28T06:52:46.142Z,50.63
2018-04-28T06:53:46.000Z,50.63
2018-04-28T06:55:38.842Z,50.63
2018-04-28T06:56:38.785Z,50.63
2018-04-28T06:58:31.890Z,61.88
2018-04-28T06:59:31.852Z,61.88
2018-04-28T07:01:25.064Z,67.50
2018-04-28T07:02:24.924Z,67.50
2018-04-28T07:04:17.944Z,73.13
2018-04-28T07:05:17.976Z,73.13
2018-04-28T07:07:12.843Z,73.13
2018-04-28T07:08:11.033Z,73.13
2018-04-28T07:10:03.861Z,73.13
2018-04-28T07:11:03.815Z,73.13
2018-04-28T07:12:56.884Z,73.13
2018-04-28T07:13:56.903Z,67.50
2018-04-28T07:15:50.107Z,67.50
2018-04-28T07:16:49.999Z,67.50
2018-04-28T07:18:43.005Z,73.13
2018-04-28T07:19:42.942Z,73.13
2018-04-28T07:21:35.966Z,73.13
2018-04-28T07:22:35.938Z,73.13
2018-04-28T07:24:28.778Z,73.13
2018-04-28T07:25:28.729Z,78.75
2018-04-28T07:27:21.560Z,78.75
2018-04-28T07:28:21.504Z,84.38
2018-04-28T07:30:14.333Z,84.38
2018-04-28T07:31:14.294Z,78.75
2018-04-28T07:33:07.334Z,78.75
2018-04-28T07:34:07.283Z,73.13
2018-04-28T07:36:00.099Z,73.13
2018-04-28T07:37:00.069Z,73.13
2018-04-28T07:38:53.090Z,78.75
2018-04-28T07:39:52.852Z,78.75
2018-04-28T07:41:45.913Z,73.13
2018-04-28T07:42:45.878Z,73.13
2018-04-28T07:44:38.885Z,73.13
2018-04-28T07:45:38.850Z,73.13
2018-04-28T07:47:31.722Z,78.75
2018-04-28T07:48:31.606Z,78.75
2018-04-28T07:50:24.596Z,78.75
2018-04-28T07:51:24.401Z,84.38
2018-04-28T07:53:17.447Z,90.00
2018-04-28T07:54:17.418Z,95.63
2018-04-28T07:56:10.218Z,101.25
2018-04-28T07:57:10.196Z,106.88
2018-04-28T07:59:03.461Z,106.88
2018-04-28T08:00:03.344Z,106.88
2018-04-28T08:01:56.419Z,112.50
2018-04-28T08:02:56.370Z,118.13
2018-04-28T08:04:49.668Z,112.50
2018-04-28T08:05:49.640Z,112.50
2018-04-28T08:07:43.963Z,112.50
2018-04-28T08:08:42.919Z,112.50
2018-04-28T08:10:35.975Z,118.13
2018-04-28T08:11:35.917Z,123.75
2018-04-28T08:13:28.933Z,129.38
2018-04-28T08:14:28.910Z,123.75
2018-04-28T08:16:22.207Z,118.13
2018-04-28T08:17:22.156Z,118.13
2018-04-28T08:19:15.150Z,118.13
2018-04-28T08:20:15.132Z,112.50
2018-04-28T08:22:08.430Z,106.88
2018-04-28T08:23:08.379Z,101.25
2018-04-28T08:25:01.436Z,101.25
2018-04-28T08:26:01.422Z,101.25
2018-04-28T08:27:54.249Z,95.63
2018-04-28T08:28:54.229Z,90.00
2018-04-28T08:30:47.224Z,84.38
2018-04-28T08:31:47.054Z,90.00
2018-04-28T08:33:40.061Z,90.00
2018-04-28T08:34:40.027Z,95.63
2018-04-28T08:36:33.421Z,112.50
2018-04-28T08:37:33.332Z,129.38
2018-04-28T08:39:26.416Z,140.63
2018-04-28T08:40:26.421Z,146.25
2018-04-28T08:42:19.549Z,140.63
2018-04-28T08:43:19.517Z,140.63
2018-04-28T08:45:12.531Z,146.25
2018-04-28T08:46:12.488Z,146.25
2018-04-28T08:48:05.492Z,151.88
2018-04-28T08:49:05.469Z,151.88
2018-04-28T08:50:58.459Z,157.50
2018-04-28T08:51:58.236Z,157.50
2018-04-28T08:53:51.126Z,168.75
2018-04-28T08:54:51.020Z,180.00
2018-04-28T08:56:44.040Z,168.75
2018-04-28T08:57:44.012Z,174.38
2018-04-28T08:59:37.375Z,180.00
2018-04-28T09:00:37.176Z,180.00
2018-04-28T09:02:30.200Z,174.38
2018-04-28T09:03:30.195Z,174.38
2018-04-28T09:05:23.226Z,174.38
2018-04-28T09:06:23.170Z,196.88
2018-04-28T09:08:16.251Z,174.38
2018-04-28T09:09:16.225Z,174.38
2018-04-28T09:11:09.340Z,168.75
2018-04-28T09:12:09.273Z,163.13
2018-04-28T09:14:02.448Z,163.13
2018-04-28T09:15:02.430Z,157.50
2018-04-28T09:16:55.442Z,146.25
2018-04-28T09:17:55.421Z,140.63
2018-04-28T09:19:48.246Z,118.13
2018-04-28T09:20:48.196Z,112.50
2018-04-28T09:22:41.041Z,129.38
2018-04-28T09:23:41.000Z,129.38
2018-04-28T09:25:34.030Z,135.00
2018-04-28T09:26:34.002Z,135.00
2018-04-28T09:28:26.970Z,123.75
2018-04-28T09:29:26.998Z,118.13
2018-04-28T09:31:20.208Z,112.50
2018-04-28T09:32:20.173Z,112.50
2018-04-28T09:34:13.138Z,95.63
2018-04-28T09:35:13.179Z,112.50
2018-04-28T09:37:06.429Z,112.50
2018-04-28T09:38:06.392Z,112.50
2018-04-28T09:39:59.203Z,123.75
2018-04-28T09:40:59.163Z,129.38
2018-04-28T09:42:52.212Z,151.88
2018-04-28T09:43:52.163Z,151.88
2018-04-28T09:45:45.302Z,168.75
2018-04-28T09:46:45.259Z,163.13
2018-04-28T09:48:38.314Z,146.25
2018-04-28T09:49:38.251Z,151.88
2018-04-28T09:51:31.448Z,168.75
2018-04-28T09:52:31.415Z,208.13
2018-04-28T09:54:24.267Z,151.88
2018-04-28T09:55:24.206Z,140.63
2018-04-28T09:57:17.270Z,123.75
2018-04-28T09:58:17.244Z,123.75
2018-04-28T10:00:10.302Z,129.38
2018-04-28T10:01:10.097Z,135.00
2018-04-28T10:03:03.134Z,146.25
2018-04-28T10:04:03.087Z,146.25
2018-04-28T10:05:56.250Z,118.13
2018-04-28T10:06:56.162Z,106.88
2018-04-28T10:08:49.264Z,101.25
2018-04-28T10:09:49.214Z,106.88
2018-04-28T10:11:42.400Z,382.50
2018-04-28T10:12:42.431Z,129.38
2018-04-28T10:14:35.371Z,146.25
2018-04-28T10:15:35.193Z,157.50
2018-04-28T10:17:28.207Z,213.75
2018-04-28T10:18:28.167Z,253.13
2018-04-28T10:20:21.298Z,163.13
2018-04-28T10:21:21.144Z,213.75
2018-04-28T10:23:14.001Z,174.38
2018-04-28T10:24:13.934Z,174.38
2018-04-28T10:26:06.957Z,191.25
2018-04-28T10:27:06.720Z,163.13
2018-04-28T10:28:59.773Z,157.50
2018-04-28T10:29:59.728Z,157.50
2018-04-28T10:31:52.762Z,174.38
2018-04-28T10:32:52.723Z,140.63
2018-04-28T10:34:45.724Z,135.00
2018-04-28T10:35:45.513Z,129.38
2018-04-28T10:37:38.529Z,135.00
2018-04-28T10:38:38.499Z,140.63
2018-04-28T10:40:31.355Z,163.13
2018-04-28T10:41:31.308Z,168.75
2018-04-28T10:43:24.118Z,163.13
2018-04-28T10:44:24.091Z,168.75
2018-04-28T10:46:17.151Z,208.13
2018-04-28T10:47:16.988Z,236.25
2018-04-28T10:49:09.889Z,225.00
2018-04-28T10:50:09.783Z,180.00
2018-04-28T10:52:02.809Z,151.88
2018-04-28T10:53:02.862Z,140.63
2018-04-28T10:54:56.107Z,140.63
2018-04-28T10:55:55.899Z,140.63
2018-04-28T10:57:48.924Z,140.63
2018-04-28T10:58:48.886Z,129.38
2018-04-28T11:00:41.969Z,129.38
2018-04-28T11:01:41.904Z,129.38
2018-04-28T11:03:34.807Z,151.88
2018-04-28T11:04:34.749Z,163.13
2018-04-28T11:06:27.795Z,157.50
2018-04-28T11:07:27.759Z,151.88
2018-04-28T11:09:20.754Z,146.25
2018-04-28T11:10:20.733Z,151.88
2018-04-28T11:12:13.706Z,174.38
2018-04-28T11:13:13.618Z,191.25
2018-04-28T11:15:06.603Z,247.50
2018-04-28T11:16:06.543Z,253.13
2018-04-28T11:17:59.584Z,669.38
2018-04-28T11:18:59.563Z,185.63
2018-04-28T11:20:52.581Z,168.75
2018-04-28T11:21:52.417Z,163.13
2018-04-28T11:23:45.431Z,151.88
2018-04-28T11:24:45.398Z,146.25
2018-04-28T11:26:38.861Z,146.25
2018-04-28T11:27:38.732Z,146.25
2018-04-28T11:29:31.766Z,140.63
2018-04-28T11:30:31.733Z,146.25
2018-04-28T11:32:24.570Z,151.88
2018-04-28T11:33:24.546Z,151.88
2018-04-28T11:35:17.735Z,151.88
2018-04-28T11:36:17.703Z,157.50
2018-04-28T11:38:10.740Z,157.50
2018-04-28T11:39:10.685Z,168.75
2018-04-28T11:41:03.948Z,247.50
2018-04-28T11:42:03.881Z,208.13
2018-04-28T11:43:56.915Z,258.75
2018-04-28T11:44:56.871Z,562.50
2018-04-28T11:46:50.206Z,528.75
2018-04-28T11:47:50.032Z,393.75
2018-04-28T11:49:42.871Z,180.00
2018-04-28T11:50:42.837Z,185.63
2018-04-28T11:52:35.869Z,163.13
2018-04-28T11:53:35.832Z,163.13
2018-04-28T11:55:29.061Z,151.88
2018-04-28T11:56:28.985Z,151.88
2018-04-28T11:58:22.049Z,146.25
2018-04-28T11:59:22.105Z,151.88
2018-04-28T12:01:15.272Z,163.13
2018-04-28T12:02:15.194Z,174.38
2018-04-28T12:04:08.214Z,613.13
2018-04-28T12:05:08.276Z,219.38
2018-04-28T12:07:01.515Z,511.88
2018-04-28T12:08:01.331Z,298.13
2018-04-28T12:09:54.353Z,157.50
2018-04-28T12:10:54.306Z,140.63
2018-04-28T12:12:47.155Z,135.00
2018-04-28T12:13:47.150Z,140.63
2018-04-28T12:15:39.929Z,168.75
2018-04-28T12:16:39.882Z,331.88
2018-04-28T12:18:33.004Z,157.50
2018-04-28T12:19:32.744Z,146.25
2018-04-28T12:21:25.772Z,146.25
2018-04-28T12:22:25.753Z,146.25
2018-04-28T12:24:18.810Z,146.25
2018-04-28T12:25:18.751Z,146.25
2018-04-28T12:27:11.734Z,146.25
2018-04-28T12:28:11.591Z,146.25
2018-04-28T12:30:04.720Z,157.50
2018-04-28T12:31:04.568Z,146.25
2018-04-28T12:32:57.635Z,140.63
2018-04-28T12:33:57.580Z,135.00
2018-04-28T12:35:50.767Z,129.38
2018-04-28T12:36:50.509Z,129.38
2018-04-28T12:38:43.518Z,135.00
2018-04-28T12:39:43.473Z,135.00
2018-04-28T12:41:36.659Z,140.63
2018-04-28T12:42:36.621Z,129.38
2018-04-28T12:44:29.726Z,90.00
2018-04-28T12:45:29.656Z,84.38
2018-04-28T12:47:22.643Z,84.38
2018-04-28T12:48:22.640Z,84.38
2018-04-28T12:50:15.532Z,78.75
2018-04-28T12:51:15.418Z,73.13
2018-04-28T12:53:08.452Z,67.50
2018-04-28T12:54:08.425Z,67.50
2018-04-28T12:56:01.428Z,61.88
2018-04-28T12:57:01.444Z,61.88
2018-04-28T12:58:54.640Z,56.25
2018-04-28T12:59:54.595Z,56.25
2018-04-28T13:01:47.616Z,61.88
2018-04-28T13:02:47.589Z,61.88
2018-04-28T13:04:40.772Z,67.50
2018-04-28T13:05:40.711Z,67.50
2018-04-28T13:07:33.734Z,67.50
2018-04-28T13:08:33.662Z,73.13
2018-04-28T13:10:26.481Z,73.13
2018-04-28T13:11:26.499Z,67.50
2018-04-28T13:13:19.290Z,61.88
2018-04-28T13:14:19.231Z,61.88
2018-04-28T13:16:12.110Z,56.25
2018-04-28T13:17:12.042Z,56.25
2018-04-28T13:19:05.040Z,56.25
2018-04-28T13:20:05.034Z,61.88
2018-04-28T13:21:58.069Z,73.13
2018-04-28T13:22:58.018Z,78.75
2018-04-28T13:24:51.218Z,90.00
2018-04-28T13:25:51.196Z,95.63
2018-04-28T13:27:44.196Z,101.25
2018-04-28T13:28:44.248Z,106.88
2018-04-28T13:30:36.972Z,112.50
2018-04-28T13:31:36.952Z,112.50
2018-04-28T13:33:30.013Z,112.50
2018-04-28T13:34:29.843Z,112.50
2018-04-28T13:36:22.815Z,112.50
2018-04-28T13:37:22.805Z,112.50
2018-04-28T13:39:15.817Z,112.50
2018-04-28T13:40:15.741Z,123.75
2018-04-28T13:42:08.599Z,157.50
2018-04-28T13:43:08.551Z,230.63
2018-04-28T13:45:01.593Z,225.00
2018-04-28T13:46:01.561Z,213.75
2018-04-28T13:47:54.590Z,168.75
2018-04-28T13:48:54.626Z,157.50
2018-04-28T13:50:47.759Z,146.25
2018-04-28T13:51:47.648Z,146.25
2018-04-28T13:53:40.690Z,146.25
2018-04-28T13:54:40.647Z,146.25
2018-04-28T13:56:33.758Z,140.63
2018-04-28T13:57:33.727Z,146.25
2018-04-28T13:59:26.733Z,140.63
2018-04-28T14:00:26.666Z,135.00
2018-04-28T14:02:19.644Z,140.63
2018-04-28T14:03:19.698Z,146.25
2018-04-28T14:05:12.889Z,140.63
2018-04-28T14:06:12.775Z,140.63
2018-04-28T14:08:05.822Z,146.25
2018-04-28T14:09:05.867Z,140.63
2018-04-28T14:10:58.999Z,129.38
2018-04-28T14:11:58.963Z,118.13
2018-04-28T14:13:51.976Z,118.13
2018-04-28T14:14:51.923Z,129.38
2018-04-28T14:16:44.766Z,140.63
2018-04-28T14:17:44.767Z,151.88
2018-04-28T14:19:37.905Z,140.63
2018-04-28T14:20:37.841Z,140.63
2018-04-28T14:22:30.830Z,140.63
2018-04-28T14:23:30.798Z,135.00
2018-04-28T14:25:23.787Z,112.50
2018-04-28T14:26:23.739Z,101.25
2018-04-28T14:28:16.650Z,95.63
2018-04-28T14:29:16.552Z,95.63
2018-04-28T14:31:09.424Z,106.88
2018-04-28T14:32:09.353Z,112.50
2018-04-28T14:34:02.390Z,118.13
2018-04-28T14:35:02.285Z,118.13
2018-04-28T14:36:55.282Z,118.13
2018-04-28T14:37:55.238Z,123.75
2018-04-28T14:39:48.306Z,146.25
2018-04-28T14:40:48.155Z,146.25
2018-04-28T14:42:41.233Z,129.38
2018-04-28T14:43:41.085Z,123.75
2018-04-28T14:45:34.076Z,106.88
2018-04-28T14:46:34.052Z,101.25
2018-04-28T14:48:26.846Z,101.25
2018-04-28T14:49:26.827Z,101.25
2018-04-28T14:51:19.830Z,90.00
2018-04-28T14:52:19.782Z,78.75
2018-04-28T14:54:12.765Z,67.50
2018-04-28T14:55:12.751Z,67.50
2018-04-28T14:57:06.169Z,78.75
2018-04-28T14:58:05.885Z,90.00
2018-04-28T14:59:58.728Z,101.25
2018-04-28T15:00:58.696Z,106.88
2018-04-28T15:02:51.708Z,95.63
2018-04-28T15:03:51.724Z,95.63
2018-04-28T15:05:44.843Z,101.25
2018-04-28T15:06:44.808Z,95.63
2018-04-28T15:08:37.782Z,78.75
2018-04-28T15:09:37.787Z,73.13
2018-04-28T15:11:31.054Z,67.50
2018-04-28T15:12:30.983Z,67.50
2018-04-28T15:14:23.829Z,67.50
2018-04-28T15:15:23.777Z,67.50
2018-04-28T15:17:16.798Z,67.50
2018-04-28T15:18:16.863Z,67.50
2018-04-28T15:20:09.589Z,67.50
2018-04-28T15:21:09.545Z,67.50
2018-04-28T15:23:02.516Z,67.50
2018-04-28T15:24:02.378Z,67.50
2018-04-28T15:25:55.366Z,67.50
2018-04-28T15:26:55.349Z,67.50
2018-04-28T15:28:48.337Z,67.50
2018-04-28T15:29:48.264Z,67.50
2018-04-28T15:31:41.128Z,67.50
2018-04-28T15:32:41.052Z,67.50
2018-04-28T15:34:34.034Z,67.50
2018-04-28T15:35:33.882Z,67.50
2018-04-28T15:37:27.333Z,61.88
2018-04-28T15:38:26.928Z,56.25
2018-04-28T15:40:19.746Z,50.63
2018-04-28T15:41:19.827Z,50.63
2018-04-28T15:43:12.566Z,45.00
2018-04-28T15:44:12.533Z,45.00
2018-04-28T15:46:05.588Z,45.00
2018-04-28T15:47:05.530Z,45.00
2018-04-28T15:48:58.634Z,39.38
2018-04-28T15:49:58.656Z,39.38
2018-04-28T15:51:51.391Z,39.38
2018-04-28T15:52:51.365Z,39.38
2018-04-28T15:54:44.452Z,39.38
2018-04-28T15:55:44.404Z,39.38
2018-04-28T15:57:37.240Z,39.38
2018-04-28T15:58:37.194Z,39.38
2018-04-28T16:00:29.997Z,33.75
2018-04-28T16:01:30.087Z,33.75
2018-04-28T16:03:23.258Z,28.13
2018-04-28T16:04:23.156Z,28.13
2018-04-28T16:06:16.146Z,22.50
2018-04-28T16:07:16.079Z,22.50
2018-04-28T16:09:09.086Z,28.13
2018-04-28T16:10:09.051Z,28.13
2018-04-28T16:12:01.882Z,28.13
2018-04-28T16:13:01.859Z,28.13
2018-04-28T16:14:54.944Z,22.50
2018-04-28T16:15:54.803Z,22.50
2018-04-28T16:17:47.792Z,22.50
2018-04-28T16:18:47.815Z,22.50
2018-04-28T16:20:40.634Z,22.50
2018-04-28T16:21:40.597Z,28.13
2018-04-28T16:23:33.599Z,28.13
2018-04-28T16:24:33.391Z,28.13
2018-04-28T16:26:26.413Z,28.13
2018-04-28T16:27:26.528Z,22.50
2018-04-28T16:29:19.147Z,22.50
2018-04-28T16:30:19.121Z,22.50
2018-04-28T16:32:12.418Z,22.50
2018-04-28T16:33:12.241Z,22.50
2018-04-28T16:35:05.238Z,16.88
2018-04-28T16:36:05.207Z,16.88
2018-04-28T16:37:58.223Z,16.88
2018-04-28T16:38:58.192Z,16.88
2018-04-28T16:40:51.070Z,16.88
2018-04-28T16:41:51.030Z,16.88
2018-04-28T16:43:44.027Z,11.25
2018-04-28T16:44:43.995Z,11.25
2018-04-28T16:46:36.961Z,11.25
2018-04-28T16:47:36.927Z,11.25
2018-04-28T16:49:30.176Z,11.25
2018-04-28T16:50:30.856Z,11.25
2018-04-28T16:52:23.138Z,11.25
2018-04-28T16:53:23.090Z,11.25
2018-04-28T16:55:16.299Z,11.25
2018-04-28T16:56:16.225Z,11.25
2018-04-28T16:58:09.247Z,11.25
2018-04-28T16:59:09.181Z,11.25
2018-04-28T17:01:02.159Z,11.25
2018-04-28T17:02:02.120Z,11.25
2018-04-28T17:03:55.244Z,5.63
2018-04-28T17:04:55.155Z,5.63
2018-04-28T17:06:47.955Z,11.25
2018-04-28T17:07:47.926Z,11.25
2018-04-28T17:09:40.912Z,11.25
2018-04-28T17:10:40.848Z,11.25
2018-04-28T17:12:34.063Z,11.25
2018-04-28T17:13:33.999Z,11.25
2018-04-28T17:15:27.105Z,11.25
2018-04-28T17:16:27.179Z,11.25
2018-04-28T17:18:20.338Z,11.25
2018-04-28T17:19:20.186Z,11.25
2018-04-28T17:21:13.157Z,11.25
2018-04-28T17:22:13.120Z,11.25
2018-04-28T17:24:06.112Z,16.88
2018-04-28T17:25:06.069Z,16.88
2018-04-28T17:26:59.200Z,16.88
2018-04-28T17:27:59.147Z,16.88
2018-04-28T17:29:51.975Z,11.25
2018-04-28T17:30:51.945Z,11.25
2018-04-28T17:32:44.901Z,11.25
2018-04-28T17:33:44.872Z,11.25
2018-04-28T17:35:37.732Z,11.25
2018-04-28T17:36:37.661Z,11.25
2018-04-28T17:38:30.588Z,11.25
2018-04-28T17:39:30.497Z,11.25
2018-04-28T17:41:23.343Z,11.25
2018-04-28T17:42:23.297Z,11.25
2018-04-28T17:44:16.253Z,11.25
2018-04-28T17:45:16.314Z,5.63
2018-04-28T17:47:09.577Z,5.63
2018-04-28T17:48:09.404Z,5.63
2018-04-28T17:50:02.432Z,5.63
2018-04-28T17:51:02.343Z,5.63
2018-04-28T17:52:55.401Z,5.63
2018-04-28T17:53:55.312Z,5.63
2018-04-28T17:55:48.241Z,5.63
2018-04-28T17:56:48.135Z,5.63
2018-04-28T17:58:41.077Z,5.63
2018-04-28T17:59:41.082Z,5.63
2018-04-28T18:01:34.047Z,0.00
2018-04-28T18:02:34.102Z,0.00
2018-04-28T18:04:27.185Z,0.00
2018-04-28T18:05:27.117Z,0.00
2018-04-28T18:07:20.137Z,0.00
2018-04-28T18:08:20.038Z,0.00
2018-04-28T18:10:13.042Z,0.00
2018-04-28T18:11:12.997Z,0.00
2018-04-28T18:13:06.042Z,0.00
2018-04-28T18:14:05.842Z,0.00
2018-04-28T18:15:58.912Z,0.00
2018-04-28T18:16:58.803Z,0.00
2018-04-28T18:18:52.342Z,0.00
2018-04-28T18:19:51.869Z,0.00
2018-04-28T18:21:45.932Z,0.00
2018-04-28T18:22:44.916Z,0.00
2018-04-28T18:24:38.317Z,0.00
2018-04-28T18:25:37.864Z,0.00
2018-04-28T18:27:31.143Z,0.00
2018-04-28T18:28:30.947Z,0.00
2018-04-28T18:30:23.799Z,0.00
2018-04-28T18:31:23.748Z,0.00
2018-04-28T18:33:16.749Z,0.00